createdAt,value
2022-12-04T00:00:51.492Z,22.63
2022-12-04T00:01:53.082Z,22.23
2022-12-04T00:02:54.815Z,21.45
2022-12-04T00:03:58.921Z,22.80
2022-12-04T00:05:00.833Z,22.30
2022-12-04T00:06:14.155Z,22.48
2022-12-04T00:07:15.819Z,22.40
2022-12-04T00:08:17.493Z,22.10
2022-12-04T00:09:19.166Z,21.17
2022-12-04T00:10:20.920Z,22.60
2022-12-04T00:11:25.433Z,20.83
2022-12-04T00:12:27.418Z,21.20
2022-12-04T00:13:29.057Z,21.90
2022-12-04T00:14:30.657Z,22.48
2022-12-04T00:15:32.287Z,21.27
2022-12-04T00:16:34.651Z,21.40
2022-12-04T00:17:36.338Z,21.70
2022-12-04T00:18:38.160Z,22.45
2022-12-04T00:19:39.947Z,20.75
2022-12-04T00:20:41.714Z,21.85
2022-12-04T00:21:45.345Z,21.35
2022-12-04T00:22:47.069Z,23.13
2022-12-04T00:23:49.278Z,20.73
2022-12-04T00:24:50.860Z,21.25
2022-12-04T00:25:53.241Z,22.23
2022-12-04T00:26:54.974Z,20.80
2022-12-04T00:27:56.583Z,21.63
2022-12-04T00:28:58.273Z,22.25
2022-12-04T00:29:59.936Z,21.83
2022-12-04T00:31:06.052Z,20.77
2022-12-04T00:32:07.812Z,20.45
2022-12-04T00:33:09.667Z,20.10
2022-12-04T00:34:11.688Z,20.00
2022-12-04T00:35:13.312Z,21.95
2022-12-04T00:36:18.286Z,20.70
2022-12-04T00:37:19.954Z,21.50
2022-12-04T00:38:21.542Z,20.27
2022-12-04T00:39:23.185Z,19.65
2022-12-04T00:40:24.783Z,20.85
2022-12-04T00:41:29.084Z,22.60
2022-12-04T00:42:30.904Z,21.05
2022-12-04T00:43:32.515Z,21.88
2022-12-04T00:44:34.108Z,19.45
2022-12-04T00:45:35.702Z,20.42
2022-12-04T00:46:37.308Z,20.40
2022-12-04T00:47:38.958Z,20.40
2022-12-04T00:48:41.612Z,20.63
2022-12-04T00:49:43.203Z,21.42
2022-12-04T00:50:44.913Z,19.80
2022-12-04T00:51:46.543Z,20.48
2022-12-04T00:52:48.167Z,19.98
2022-12-04T00:53:51.020Z,20.35
2022-12-04T00:54:52.696Z,19.10
2022-12-04T00:55:54.298Z,20.83
2022-12-04T00:56:55.885Z,18.00
2022-12-04T00:57:59.980Z,20.52
2022-12-04T00:59:02.082Z,19.45
2022-12-04T01:00:05.094Z,18.48
2022-12-04T01:01:10.535Z,20.15
2022-12-04T01:02:12.189Z,19.10
2022-12-04T01:03:13.892Z,18.30
2022-12-04T01:04:15.613Z,17.70
2022-12-04T01:05:17.328Z,19.50
2022-12-04T01:06:23.167Z,20.27
2022-12-04T01:07:24.761Z,18.60
2022-12-04T01:08:26.560Z,21.13
2022-12-04T01:09:28.295Z,18.90
2022-12-04T01:10:29.896Z,19.83
2022-12-04T01:11:32.605Z,19.20
2022-12-04T01:12:34.557Z,18.52
2022-12-04T01:13:36.218Z,18.08
2022-12-04T01:14:37.807Z,19.42
2022-12-04T01:15:42.446Z,18.55
2022-12-04T01:16:44.151Z,17.98
2022-12-04T01:17:45.857Z,18.40
2022-12-04T01:18:47.960Z,18.45
2022-12-04T01:19:49.815Z,18.92
2022-12-04T01:20:52.818Z,17.08
2022-12-04T01:21:54.543Z,18.10
2022-12-04T01:22:56.167Z,18.55
2022-12-04T01:23:59.178Z,17.02
2022-12-04T01:25:00.800Z,16.52
2022-12-04T01:26:02.499Z,16.83
2022-12-04T01:27:04.175Z,18.40
2022-12-04T01:28:05.800Z,17.50
2022-12-04T01:29:07.492Z,17.42
2022-12-04T01:30:09.442Z,16.40
2022-12-04T01:31:14.298Z,18.08
2022-12-04T01:32:16.237Z,16.92
2022-12-04T01:33:17.845Z,17.42
2022-12-04T01:34:19.577Z,17.25
2022-12-04T01:35:21.203Z,17.52
2022-12-04T01:36:26.437Z,17.00
2022-12-04T01:37:30.974Z,17.10
2022-12-04T01:38:33.789Z,16.05
2022-12-04T01:39:38.745Z,16.83
2022-12-04T01:40:44.651Z,16.48
2022-12-04T01:41:46.694Z,17.52
2022-12-04T01:42:48.309Z,16.42
2022-12-04T01:44:11.394Z,17.15
2022-12-04T01:45:31.434Z,17.75
2022-12-04T01:46:33.135Z,17.30
2022-12-04T01:47:34.748Z,17.20
2022-12-04T01:48:51.574Z,16.90
2022-12-04T01:49:53.439Z,19.35
2022-12-04T01:51:19.019Z,16.20
2022-12-04T01:52:23.522Z,17.02
2022-12-04T01:53:25.491Z,17.63
2022-12-04T01:54:35.746Z,16.38
2022-12-04T01:55:37.584Z,17.05
2022-12-04T01:57:12.773Z,17.52
2022-12-04T01:58:15.625Z,17.65
2022-12-04T01:59:21.697Z,15.95
2022-12-04T02:00:24.188Z,16.23
2022-12-04T02:01:29.129Z,15.75
2022-12-04T02:02:35.017Z,16.67
2022-12-04T02:03:38.766Z,17.63
2022-12-04T02:04:42.150Z,15.57
2022-12-04T02:05:45.105Z,16.20
2022-12-04T02:06:46.855Z,13.70
2022-12-04T02:07:52.218Z,16.83
2022-12-04T02:08:54.321Z,18.02
2022-12-04T02:09:56.552Z,17.63
2022-12-04T02:11:01.341Z,15.88
2022-12-04T02:12:08.804Z,16.00
2022-12-04T02:13:16.842Z,16.95
2022-12-04T02:14:24.490Z,15.82
2022-12-04T02:15:53.193Z,18.02
2022-12-04T02:17:12.293Z,18.30
2022-12-04T02:18:28.431Z,18.80
2022-12-04T02:19:57.366Z,19.45
2022-12-04T02:21:13.708Z,19.38
2022-12-04T02:22:34.321Z,18.58
2022-12-04T02:23:57.153Z,19.05
2022-12-04T02:25:25.184Z,18.05
2022-12-04T02:26:48.973Z,18.77
2022-12-04T02:28:00.175Z,18.30
2022-12-04T02:29:20.348Z,20.58
2022-12-04T02:30:22.127Z,19.75
2022-12-04T02:31:38.723Z,20.30
2022-12-04T02:33:00.707Z,18.30
2022-12-04T02:34:16.080Z,18.58
2022-12-04T02:35:30.472Z,19.55
2022-12-04T02:36:40.746Z,20.27
2022-12-04T02:37:53.504Z,20.73
2022-12-04T02:39:38.283Z,18.42
2022-12-04T02:42:16.094Z,20.55
2022-12-04T02:43:32.595Z,19.90
2022-12-04T02:44:49.612Z,18.90
2022-12-04T02:46:08.494Z,19.20
2022-12-04T02:47:13.315Z,19.00
2022-12-04T02:48:20.570Z,19.70
2022-12-04T02:49:37.003Z,18.90
2022-12-04T02:50:40.889Z,19.40
2022-12-04T02:51:44.720Z,18.55
2022-12-04T02:52:57.534Z,18.75
2022-12-04T02:54:06.152Z,17.00
2022-12-04T02:55:14.938Z,17.38
2022-12-04T02:56:25.016Z,18.98
2022-12-04T02:57:32.669Z,18.85
2022-12-04T02:58:41.607Z,18.63
2022-12-04T02:59:45.437Z,17.75
2022-12-04T03:00:48.551Z,17.63
2022-12-04T03:01:54.203Z,17.73
2022-12-04T03:03:10.484Z,15.15
2022-12-04T03:04:19.541Z,16.95
2022-12-04T03:05:27.739Z,16.92
2022-12-04T03:06:32.480Z,17.13
2022-12-04T03:07:46.751Z,17.40
2022-12-04T03:08:58.295Z,16.85
2022-12-04T03:10:05.877Z,18.02
2022-12-04T03:11:08.009Z,18.55
2022-12-04T03:12:26.438Z,17.15
2022-12-04T03:13:34.081Z,18.15
2022-12-04T03:14:42.302Z,17.48
2022-12-04T03:15:54.230Z,17.35
2022-12-04T03:17:00.526Z,18.17
2022-12-04T03:18:09.245Z,17.55
2022-12-04T03:19:21.911Z,17.15
2022-12-04T03:20:24.940Z,17.63
2022-12-04T03:21:31.652Z,16.98
2022-12-04T03:22:36.627Z,16.75
2022-12-04T03:23:51.142Z,17.73
2022-12-04T03:24:55.360Z,16.90
2022-12-04T03:26:12.217Z,17.65
2022-12-04T03:27:25.930Z,17.98
2022-12-04T03:28:37.261Z,18.15
2022-12-04T03:29:46.301Z,17.52
2022-12-04T03:30:57.777Z,17.55
2022-12-04T03:32:13.403Z,17.02
2022-12-04T03:33:19.906Z,17.85
2022-12-04T03:34:41.889Z,17.83
2022-12-04T03:35:48.657Z,17.73
2022-12-04T03:36:55.134Z,17.15
2022-12-04T03:38:12.029Z,16.90
2022-12-04T03:39:24.900Z,16.48
2022-12-04T03:40:39.003Z,18.02
2022-12-04T03:41:50.126Z,16.83
2022-12-04T03:42:59.899Z,16.75
2022-12-04T03:44:18.867Z,17.08
2022-12-04T03:45:49.390Z,17.67
2022-12-04T03:47:05.737Z,17.15
2022-12-04T03:48:23.445Z,16.83
2022-12-04T03:49:25.613Z,16.20
2022-12-04T03:50:34.113Z,16.65
2022-12-04T03:51:42.753Z,17.92
2022-12-04T03:53:00.638Z,16.67
2022-12-04T03:54:09.040Z,16.48
2022-12-04T03:55:43.033Z,16.30
2022-12-04T03:56:52.579Z,15.70
2022-12-04T03:58:01.274Z,16.70
2022-12-04T03:59:12.765Z,17.13
2022-12-04T04:00:22.886Z,16.23
2022-12-04T04:01:33.863Z,15.75
2022-12-04T04:02:42.283Z,16.15
2022-12-04T04:03:50.344Z,15.48
2022-12-04T04:04:57.812Z,15.48
2022-12-04T04:06:06.441Z,15.93
2022-12-04T04:07:16.376Z,17.35
2022-12-04T04:08:27.446Z,16.33
2022-12-04T04:09:35.372Z,16.10
2022-12-04T04:10:38.124Z,17.25
2022-12-04T04:11:52.012Z,15.00
2022-12-04T04:13:22.260Z,15.35
2022-12-04T04:14:48.893Z,15.85
2022-12-04T04:16:15.030Z,16.30
2022-12-04T04:17:39.142Z,16.20
2022-12-04T04:19:02.463Z,16.25
2022-12-04T04:20:31.308Z,15.30
2022-12-04T04:21:57.150Z,14.48
2022-12-04T04:23:20.101Z,16.17
2022-12-04T04:24:41.667Z,16.10
2022-12-04T04:25:46.480Z,15.25
2022-12-04T04:26:50.704Z,15.15
2022-12-04T04:27:58.204Z,14.65
2022-12-04T04:29:00.606Z,14.38
2022-12-04T04:30:03.320Z,13.70
2022-12-04T04:31:21.452Z,14.02
2022-12-04T04:32:58.243Z,13.43
2022-12-04T04:34:11.587Z,14.85
2022-12-04T04:35:29.852Z,14.13
2022-12-04T04:36:45.382Z,13.07
2022-12-04T04:38:02.332Z,14.77
2022-12-04T04:41:21.210Z,14.55
2022-12-04T04:43:02.256Z,14.70
2022-12-04T04:44:43.359Z,14.07
2022-12-04T04:46:35.199Z,14.85
2022-12-04T04:48:09.720Z,14.15
2022-12-04T04:49:50.249Z,14.90
2022-12-04T04:54:59.153Z,15.63
2022-12-04T04:59:35.692Z,15.65
2022-12-04T05:01:23.566Z,16.00
2022-12-04T05:02:37.804Z,16.00
2022-12-04T05:03:59.064Z,14.88
2022-12-04T05:06:50.005Z,14.77
2022-12-04T05:09:36.804Z,15.48
2022-12-04T05:10:53.886Z,15.02
2022-12-04T05:14:14.871Z,15.43
2022-12-04T05:15:30.185Z,15.88
2022-12-04T05:21:07.826Z,15.30
2022-12-04T05:27:16.067Z,14.85
2022-12-04T05:28:41.244Z,15.90
2022-12-04T05:30:06.744Z,15.35
2022-12-04T05:31:25.343Z,15.40
2022-12-04T05:32:53.972Z,15.45
2022-12-04T05:34:16.310Z,15.63
2022-12-04T05:36:03.884Z,15.50
2022-12-04T05:37:09.535Z,16.80
2022-12-04T05:38:46.072Z,14.07
2022-12-04T05:41:03.074Z,15.35
2022-12-04T05:42:38.950Z,15.10
2022-12-04T05:45:56.893Z,15.15
2022-12-04T05:47:40.881Z,14.88
2022-12-04T05:49:46.581Z,15.68
2022-12-04T05:52:54.366Z,15.60
2022-12-04T05:54:12.348Z,14.95
2022-12-04T05:55:33.031Z,14.95
2022-12-04T05:57:14.234Z,15.05
2022-12-04T06:00:31.803Z,15.00
2022-12-04T06:02:07.387Z,15.80
2022-12-04T06:05:46.894Z,15.80
2022-12-04T06:07:22.177Z,14.70
2022-12-04T06:10:12.897Z,15.88
2022-12-04T06:11:52.209Z,15.27
2022-12-04T06:16:58.422Z,16.25
2022-12-04T06:20:12.436Z,16.45
2022-12-04T06:21:43.461Z,15.40
2022-12-04T06:22:54.649Z,15.98
2022-12-04T06:24:31.956Z,16.67
2022-12-04T06:26:25.221Z,14.88
2022-12-04T06:27:50.168Z,15.88
2022-12-04T06:29:22.394Z,14.93
2022-12-04T06:30:36.988Z,15.38
2022-12-04T06:34:37.996Z,14.98
2022-12-04T06:36:23.091Z,16.88
2022-12-04T06:39:46.335Z,15.98
2022-12-04T06:43:02.206Z,15.43
2022-12-04T06:45:56.340Z,17.15
2022-12-04T06:49:12.917Z,15.55
2022-12-04T06:53:42.340Z,16.45
2022-12-04T06:55:10.721Z,17.15
2022-12-04T06:56:29.704Z,16.98
2022-12-04T06:58:00.270Z,16.20
2022-12-04T07:00:40.686Z,17.40
2022-12-04T07:00:58.331Z,15.90
2022-12-04T07:02:13.396Z,15.85
2022-12-04T07:03:51.667Z,15.55
2022-12-04T07:06:57.700Z,16.02
2022-12-04T07:08:16.823Z,15.00
2022-12-04T07:09:32.184Z,15.50
2022-12-04T07:10:57.460Z,15.18
2022-12-04T07:12:28.668Z,15.85
2022-12-04T07:13:54.317Z,15.77
2022-12-04T07:15:15.149Z,15.65
2022-12-04T07:16:43.245Z,13.63
2022-12-04T07:18:19.574Z,15.25
2022-12-04T07:19:53.000Z,14.45
2022-12-04T07:22:26.403Z,15.23
2022-12-04T07:23:44.029Z,14.50
2022-12-04T07:26:52.373Z,14.90
2022-12-04T07:28:23.638Z,13.77
2022-12-04T07:30:12.546Z,14.20
2022-12-04T07:31:32.941Z,14.30
2022-12-04T07:32:49.450Z,13.82
2022-12-04T07:34:05.291Z,13.73
2022-12-04T07:37:24.806Z,14.10
2022-12-04T07:38:30.030Z,14.80
2022-12-04T07:39:53.736Z,15.25
2022-12-04T07:41:14.545Z,14.60
2022-12-04T07:42:29.241Z,14.25
2022-12-04T07:43:52.734Z,15.20
2022-12-04T07:45:13.085Z,15.30
2022-12-04T07:46:33.481Z,14.27
2022-12-04T07:47:46.850Z,13.52
2022-12-04T07:48:58.977Z,14.10
2022-12-04T07:50:06.994Z,14.02
2022-12-04T07:51:46.628Z,14.93
2022-12-04T07:52:54.662Z,14.55
2022-12-04T07:54:08.019Z,14.68
2022-12-04T07:55:23.373Z,15.05
2022-12-04T07:56:43.021Z,14.23
2022-12-04T07:58:13.686Z,14.50
2022-12-04T07:59:24.154Z,14.73
2022-12-04T08:00:39.422Z,14.35
2022-12-04T08:02:03.459Z,14.45
2022-12-04T08:03:16.633Z,15.02
2022-12-04T08:04:49.585Z,14.18
2022-12-04T08:06:06.665Z,14.80
2022-12-04T08:07:27.560Z,14.85
2022-12-04T08:08:41.419Z,14.10
2022-12-04T08:09:53.083Z,14.18
2022-12-04T08:11:05.334Z,16.00
2022-12-04T08:12:21.574Z,14.48
2022-12-04T08:13:36.614Z,16.75
2022-12-04T08:14:47.912Z,15.77
2022-12-04T08:16:06.126Z,15.00
2022-12-04T08:17:16.299Z,15.43
2022-12-04T08:18:20.415Z,14.95
2022-12-04T08:19:33.184Z,14.80
2022-12-04T08:20:44.165Z,15.23
2022-12-04T08:21:53.713Z,15.07
2022-12-04T08:23:03.138Z,13.80
2022-12-04T08:24:17.211Z,14.10
2022-12-04T08:25:22.542Z,14.93
2022-12-04T08:26:38.140Z,14.82
2022-12-04T08:27:49.686Z,14.73
2022-12-04T08:29:02.503Z,15.25
2022-12-04T08:31:38.335Z,13.95
2022-12-04T08:33:03.084Z,14.77
2022-12-04T08:34:20.901Z,15.57
2022-12-04T08:39:34.052Z,13.43
2022-12-04T08:42:20.153Z,15.27
2022-12-04T08:43:25.389Z,16.33
2022-12-04T08:44:35.725Z,14.50
2022-12-04T08:45:54.783Z,15.85
2022-12-04T08:47:06.790Z,14.20
2022-12-04T08:49:34.394Z,14.93
2022-12-04T08:50:41.106Z,15.30
2022-12-04T08:51:51.060Z,14.60
2022-12-04T08:52:58.200Z,14.52
2022-12-04T08:54:15.894Z,16.33
2022-12-04T08:55:21.074Z,14.10
2022-12-04T08:56:28.832Z,15.50
2022-12-04T08:57:40.540Z,16.13
2022-12-04T08:58:42.631Z,15.40
2022-12-04T08:59:51.239Z,16.55
2022-12-04T09:01:15.129Z,16.33
2022-12-04T09:02:31.487Z,14.95
2022-12-04T09:03:38.417Z,15.93
2022-12-04T09:04:50.588Z,15.50
2022-12-04T09:07:53.457Z,16.17
2022-12-04T09:09:09.089Z,16.80
2022-12-04T09:10:34.001Z,16.60
2022-12-04T09:11:57.111Z,16.42
2022-12-04T09:13:08.207Z,15.65
2022-12-04T09:14:36.836Z,15.93
2022-12-04T09:15:55.249Z,16.02
2022-12-04T09:17:17.735Z,16.00
2022-12-04T09:18:46.504Z,16.58
2022-12-04T09:20:03.493Z,15.65
2022-12-04T09:21:36.683Z,16.55
2022-12-04T09:23:09.416Z,15.45
2022-12-04T09:24:22.768Z,16.40
2022-12-04T09:29:24.108Z,16.70
2022-12-04T09:30:38.637Z,16.35
2022-12-04T09:31:59.694Z,16.77
2022-12-04T09:33:32.431Z,16.17
2022-12-04T09:34:51.218Z,15.18
2022-12-04T09:38:18.578Z,15.15
2022-12-04T09:39:36.324Z,15.80
2022-12-04T09:41:03.285Z,17.23
2022-12-04T09:42:36.576Z,17.40
2022-12-04T09:43:58.730Z,16.73
2022-12-04T09:45:22.122Z,15.25
2022-12-04T09:46:38.169Z,15.52
2022-12-04T09:49:35.785Z,18.88
2022-12-04T09:51:04.307Z,18.33
2022-12-04T09:54:16.303Z,16.65
2022-12-04T09:55:22.812Z,16.50
2022-12-04T09:56:28.873Z,17.63
2022-12-04T09:57:42.177Z,16.70
2022-12-04T09:58:59.141Z,17.50
2022-12-04T10:08:08.867Z,18.92
2022-12-04T10:12:19.377Z,22.00
2022-12-04T10:20:11.694Z,21.60
2022-12-04T10:21:45.703Z,23.45
2022-12-04T10:23:25.676Z,24.27
2022-12-04T10:24:45.685Z,24.95
2022-12-04T10:25:49.207Z,34.58
2022-12-04T10:26:52.597Z,24.83
2022-12-04T10:28:02.679Z,21.52
2022-12-04T10:29:08.336Z,20.88
2022-12-04T10:30:26.378Z,21.60
2022-12-04T10:31:29.748Z,21.20
2022-12-04T10:32:35.143Z,21.35
2022-12-04T10:33:38.503Z,22.45
2022-12-04T10:34:45.499Z,20.13
2022-12-04T10:35:52.359Z,20.05
2022-12-04T10:36:58.868Z,19.60
2022-12-04T10:38:38.475Z,23.67
2022-12-04T10:39:43.131Z,22.90
2022-12-04T10:40:50.041Z,21.10
2022-12-04T10:42:01.173Z,21.13
2022-12-04T10:43:14.536Z,21.75
2022-12-04T10:44:18.155Z,20.10
2022-12-04T10:45:22.604Z,20.02
2022-12-04T10:46:34.795Z,19.63
2022-12-04T10:47:37.391Z,21.80
2022-12-04T10:48:41.456Z,20.30
2022-12-04T10:49:43.234Z,18.50
2022-12-04T10:50:45.506Z,23.45
2022-12-04T10:51:47.744Z,20.23
2022-12-04T10:52:50.177Z,19.98
2022-12-04T10:53:52.367Z,18.25
2022-12-04T10:55:01.263Z,17.30
2022-12-04T10:56:21.201Z,17.02
2022-12-04T10:57:22.938Z,20.05
2022-12-04T10:58:27.089Z,17.92
2022-12-04T10:59:29.633Z,16.35
2022-12-04T11:00:33.761Z,18.30
2022-12-04T11:01:35.687Z,19.30
2022-12-04T11:02:38.877Z,21.63
2022-12-04T11:03:44.105Z,18.65
2022-12-04T11:04:56.915Z,21.38
2022-12-04T11:06:02.150Z,21.05
2022-12-04T11:07:07.812Z,18.05
2022-12-04T11:08:23.487Z,23.50
2022-12-04T11:09:25.611Z,20.20
2022-12-04T11:10:43.190Z,22.00
2022-12-04T11:11:44.887Z,19.88
2022-12-04T11:12:58.061Z,20.92
2022-12-04T11:14:18.628Z,18.17
2022-12-04T11:15:20.532Z,19.83
2022-12-04T11:16:44.649Z,17.30
2022-12-04T11:17:46.546Z,18.80
2022-12-04T11:18:50.331Z,17.48
2022-12-04T11:20:21.060Z,17.55
2022-12-04T11:21:32.500Z,18.48
2022-12-04T11:22:37.100Z,18.00
2022-12-04T11:23:45.055Z,17.48
2022-12-04T11:24:53.153Z,17.35
2022-12-04T11:26:05.271Z,17.48
2022-12-04T11:27:18.830Z,16.52
2022-12-04T11:29:47.947Z,16.65
2022-12-04T11:30:55.269Z,16.45
2022-12-04T11:31:59.404Z,17.48
2022-12-04T11:33:18.097Z,16.65
2022-12-04T11:34:38.706Z,15.75
2022-12-04T11:35:40.410Z,18.90
2022-12-04T11:36:42.575Z,18.15
2022-12-04T11:37:54.057Z,17.98
2022-12-04T11:39:17.211Z,16.83
2022-12-04T11:40:20.301Z,15.85
2022-12-04T11:41:28.535Z,15.80
2022-12-04T11:42:32.029Z,17.70
2022-12-04T11:43:37.687Z,16.13
2022-12-04T11:44:49.260Z,16.58
2022-12-04T11:45:59.550Z,17.48
2022-12-04T11:47:04.857Z,18.02
2022-12-04T11:48:18.388Z,17.35
2022-12-04T11:49:24.873Z,17.50
2022-12-04T11:51:16.406Z,17.92
2022-12-04T11:52:41.667Z,20.00
2022-12-04T11:53:52.758Z,20.48
2022-12-04T11:55:01.372Z,18.38
2022-12-04T11:56:21.646Z,17.77
2022-12-04T11:57:43.668Z,19.13
2022-12-04T11:59:24.214Z,19.67
2022-12-04T12:00:27.515Z,20.13
2022-12-04T12:01:56.325Z,20.23
2022-12-04T12:03:21.165Z,20.00
2022-12-04T12:04:33.627Z,19.50
2022-12-04T12:06:28.919Z,19.95
2022-12-04T12:08:02.732Z,19.65
2022-12-04T12:09:31.671Z,19.55
2022-12-04T12:10:44.993Z,20.13
2022-12-04T12:11:54.195Z,21.58
2022-12-04T12:13:14.491Z,20.52
2022-12-04T12:14:29.125Z,21.60
2022-12-04T12:15:46.033Z,21.85
2022-12-04T12:17:04.005Z,22.60
2022-12-04T12:18:16.470Z,22.90
2022-12-04T12:19:32.016Z,24.05
2022-12-04T12:20:41.020Z,22.23
2022-12-04T12:22:28.045Z,22.20
2022-12-04T12:23:49.915Z,22.52
2022-12-04T12:25:03.299Z,24.33
2022-12-04T12:26:10.901Z,22.73
2022-12-04T12:27:50.416Z,23.35
2022-12-04T12:28:58.238Z,24.17
2022-12-04T12:30:17.626Z,24.00
2022-12-04T12:31:45.614Z,23.17
2022-12-04T12:32:53.887Z,23.35
2022-12-04T12:34:03.287Z,19.83
2022-12-04T12:35:13.200Z,22.13
2022-12-04T12:36:15.470Z,22.13
2022-12-04T12:37:46.306Z,21.65
2022-12-04T12:38:58.760Z,22.40
2022-12-04T12:40:23.571Z,20.85
2022-12-04T12:41:50.303Z,21.70
2022-12-04T12:43:19.511Z,21.55
2022-12-04T12:44:24.158Z,20.10
2022-12-04T12:46:04.290Z,20.73
2022-12-04T12:47:17.345Z,19.02
2022-12-04T12:48:46.784Z,20.40
2022-12-04T12:49:59.586Z,20.48
2022-12-04T12:51:29.160Z,19.50
2022-12-04T12:52:42.217Z,20.95
2022-12-04T12:53:47.896Z,22.25
2022-12-04T12:54:58.743Z,21.33
2022-12-04T12:56:03.839Z,20.25
2022-12-04T12:57:36.365Z,21.05
2022-12-04T12:58:53.948Z,20.88
2022-12-04T12:59:59.951Z,21.67
2022-12-04T13:01:07.876Z,21.98
2022-12-04T13:02:43.270Z,21.05
2022-12-04T13:03:55.142Z,20.25
2022-12-04T13:05:01.158Z,21.42
2022-12-04T13:06:09.722Z,20.75
2022-12-04T13:07:17.403Z,20.73
2022-12-04T13:08:25.908Z,20.55
2022-12-04T13:09:35.072Z,20.45
2022-12-04T13:10:43.363Z,20.88
2022-12-04T13:11:48.601Z,21.70
2022-12-04T13:13:02.184Z,21.88
2022-12-04T13:14:05.014Z,22.35
2022-12-04T13:15:12.911Z,23.88
2022-12-04T13:16:25.770Z,23.13
2022-12-04T13:17:34.021Z,22.08
2022-12-04T13:18:41.307Z,21.73
2022-12-04T13:19:51.797Z,23.20
2022-12-04T13:20:59.049Z,22.08
2022-12-04T13:22:31.471Z,23.40
2022-12-04T13:23:45.520Z,23.40
2022-12-04T13:25:19.382Z,23.58
2022-12-04T13:26:51.154Z,22.98
2022-12-04T13:28:17.788Z,22.42
2022-12-04T13:29:35.619Z,24.15
2022-12-04T13:30:44.078Z,23.10
2022-12-04T13:32:05.891Z,23.95
2022-12-04T13:33:34.006Z,20.55
2022-12-04T13:34:44.436Z,21.10
2022-12-04T13:36:01.234Z,21.02
2022-12-04T13:37:17.524Z,22.10
2022-12-04T13:38:28.324Z,23.65
2022-12-04T13:39:48.670Z,20.92
2022-12-04T13:41:01.373Z,22.92
2022-12-04T13:42:06.635Z,23.52
2022-12-04T13:43:36.928Z,24.00
2022-12-04T13:44:40.604Z,22.60
2022-12-04T13:45:45.547Z,23.30
2022-12-04T13:46:57.326Z,23.75
2022-12-04T13:48:00.959Z,23.60
2022-12-04T13:49:17.647Z,24.20
2022-12-04T13:50:19.198Z,21.70
2022-12-04T13:51:38.168Z,24.02
2022-12-04T13:52:41.761Z,24.83
2022-12-04T13:53:44.120Z,25.83
2022-12-04T13:54:59.796Z,27.98
2022-12-04T13:56:07.328Z,24.85
2022-12-04T13:57:16.442Z,22.98
2022-12-04T13:58:18.070Z,22.83
2022-12-04T13:59:30.488Z,22.75
2022-12-04T14:00:36.418Z,21.42
2022-12-04T14:01:41.215Z,22.83
2022-12-04T14:02:51.253Z,23.13
2022-12-04T14:03:59.392Z,23.05
2022-12-04T14:05:14.327Z,22.60
2022-12-04T14:06:34.858Z,23.83
2022-12-04T14:07:38.814Z,23.35
2022-12-04T14:08:43.540Z,22.58
2022-12-04T14:09:53.121Z,21.90
2022-12-04T14:11:14.078Z,21.55
2022-12-04T14:12:17.569Z,21.70
2022-12-04T14:13:23.417Z,20.95
2022-12-04T14:14:43.187Z,21.90
2022-12-04T14:15:45.172Z,22.77
2022-12-04T14:16:49.317Z,23.17
2022-12-04T14:18:14.485Z,22.52
2022-12-04T14:19:36.363Z,22.90
2022-12-04T14:20:39.709Z,21.75
2022-12-04T14:21:46.977Z,22.65
2022-12-04T14:22:48.708Z,22.05
2022-12-04T14:23:51.845Z,22.08
2022-12-04T14:25:04.442Z,22.02
2022-12-04T14:26:18.761Z,21.95
2022-12-04T14:27:43.483Z,22.55
2022-12-04T14:28:45.211Z,22.38
2022-12-04T14:29:52.646Z,22.55
2022-12-04T14:31:17.332Z,22.95
2022-12-04T14:32:25.930Z,22.67
2022-12-04T14:33:30.616Z,22.35
2022-12-04T14:34:35.289Z,22.75
2022-12-04T14:35:46.412Z,22.65
2022-12-04T14:36:51.374Z,20.60
2022-12-04T14:37:57.696Z,22.58
2022-12-04T14:39:20.052Z,22.67
2022-12-04T14:40:45.391Z,22.20
2022-12-04T14:41:47.142Z,21.40
2022-12-04T14:42:49.984Z,22.45
2022-12-04T14:43:53.653Z,20.70
2022-12-04T14:45:00.840Z,20.02
2022-12-04T14:46:25.877Z,21.48
2022-12-04T14:48:01.599Z,21.77
2022-12-04T14:49:18.357Z,22.42
2022-12-04T14:50:50.313Z,22.40
2022-12-04T14:52:14.854Z,22.67
2022-12-04T14:53:46.012Z,21.40
2022-12-04T14:55:20.511Z,22.63
2022-12-04T14:56:38.632Z,21.65
2022-12-04T14:58:00.110Z,21.38
2022-12-04T14:59:16.081Z,21.48
2022-12-04T15:00:22.452Z,23.20
2022-12-04T15:01:29.659Z,21.23
2022-12-04T15:02:40.306Z,20.63
2022-12-04T15:03:44.891Z,20.88
2022-12-04T15:04:49.078Z,21.83
2022-12-04T15:05:52.672Z,21.60
2022-12-04T15:06:59.878Z,21.98
2022-12-04T15:08:05.530Z,21.60
2022-12-04T15:09:39.059Z,23.90
2022-12-04T15:11:07.141Z,21.83
2022-12-04T15:12:34.887Z,21.35
2022-12-04T15:13:38.013Z,21.40
2022-12-04T15:14:44.777Z,21.35
2022-12-04T15:15:47.022Z,22.88
2022-12-04T15:16:48.740Z,23.70
2022-12-04T15:18:01.594Z,21.33
2022-12-04T15:19:03.207Z,21.83
2022-12-04T15:20:18.704Z,22.48
2022-12-04T15:21:20.862Z,21.05
2022-12-04T15:22:28.336Z,22.48
2022-12-04T15:23:44.075Z,19.70
2022-12-04T15:24:45.927Z,21.70
2022-12-04T15:25:53.491Z,20.92
2022-12-04T15:26:55.662Z,21.98
2022-12-04T15:28:06.121Z,20.38
2022-12-04T15:29:09.347Z,21.70
2022-12-04T15:30:18.350Z,21.17
2022-12-04T15:31:24.825Z,22.00
2022-12-04T15:32:28.767Z,22.05
2022-12-04T15:33:35.839Z,22.75
2022-12-04T15:34:43.616Z,20.50
2022-12-04T15:35:51.128Z,21.70
2022-12-04T15:37:06.221Z,20.52
2022-12-04T15:38:12.782Z,20.83
2022-12-04T15:39:18.853Z,20.55
2022-12-04T15:40:23.584Z,19.52
2022-12-04T15:41:33.726Z,20.70
2022-12-04T15:42:35.412Z,18.45
2022-12-04T15:43:43.358Z,19.73
2022-12-04T15:45:00.943Z,19.63
2022-12-04T15:46:21.115Z,20.80
2022-12-04T15:47:25.484Z,17.67
2022-12-04T15:48:29.822Z,19.40
2022-12-04T15:49:32.947Z,16.85
2022-12-04T15:50:34.886Z,18.25
2022-12-04T15:51:36.478Z,17.63
2022-12-04T15:52:47.309Z,19.52
2022-12-04T15:53:48.974Z,19.30
2022-12-04T15:55:15.636Z,18.48
2022-12-04T15:56:21.985Z,17.65
2022-12-04T15:57:35.824Z,18.90
2022-12-04T15:58:39.787Z,18.67
2022-12-04T15:59:41.521Z,18.10
2022-12-04T16:00:44.051Z,18.50
2022-12-04T16:01:46.038Z,18.70
2022-12-04T16:02:48.635Z,18.70
2022-12-04T16:03:52.919Z,18.48
2022-12-04T16:04:54.750Z,18.77
2022-12-04T16:06:07.612Z,18.15
2022-12-04T16:07:28.549Z,17.85
2022-12-04T16:08:36.039Z,18.60
2022-12-04T16:09:37.688Z,17.98
2022-12-04T16:10:39.539Z,17.65
2022-12-04T16:11:41.837Z,19.05
2022-12-04T16:12:53.516Z,18.98
2022-12-04T16:14:15.583Z,17.80
2022-12-04T16:15:17.234Z,19.35
2022-12-04T16:16:22.094Z,19.70
2022-12-04T16:17:34.119Z,19.67
2022-12-04T16:18:37.057Z,20.50
2022-12-04T16:19:42.450Z,18.60
2022-12-04T16:20:44.150Z,18.58
2022-12-04T16:21:46.525Z,18.00
2022-12-04T16:22:52.973Z,18.70
2022-12-04T16:23:54.774Z,19.75
2022-12-04T16:24:57.045Z,21.00
2022-12-04T16:25:58.788Z,19.55
2022-12-04T16:27:00.943Z,20.48
2022-12-04T16:28:02.594Z,19.80
2022-12-04T16:29:04.397Z,19.60
2022-12-04T16:30:06.531Z,20.50
2022-12-04T16:31:10.853Z,20.25
2022-12-04T16:32:15.607Z,21.60
2022-12-04T16:33:17.390Z,19.70
2022-12-04T16:34:19.044Z,19.60
2022-12-04T16:35:21.284Z,19.33
2022-12-04T16:36:22.876Z,19.23
2022-12-04T16:37:24.972Z,19.98
2022-12-04T16:38:26.575Z,18.60
2022-12-04T16:39:28.211Z,23.70
2022-12-04T16:40:29.800Z,27.60
2022-12-04T16:41:31.482Z,20.15
2022-12-04T16:42:34.814Z,36.05
2022-12-04T16:43:36.423Z,23.73
2022-12-04T16:44:40.283Z,22.38
2022-12-04T16:45:49.017Z,33.22
2022-12-04T16:46:50.978Z,44.22
2022-12-04T16:47:52.940Z,26.25
2022-12-04T16:48:54.869Z,24.90
2022-12-04T16:49:56.497Z,32.17
2022-12-04T16:50:58.144Z,48.50
2022-12-04T16:51:59.728Z,28.55
2022-12-04T16:53:01.344Z,32.65
2022-12-04T16:54:03.034Z,33.88
2022-12-04T16:55:21.905Z,27.98
2022-12-04T16:56:23.650Z,20.10
2022-12-04T16:57:25.270Z,21.35
2022-12-04T16:58:26.883Z,20.20
2022-12-04T16:59:28.565Z,18.85
2022-12-04T17:00:30.296Z,19.40
2022-12-04T17:01:39.141Z,24.42
2022-12-04T17:02:42.860Z,21.65
2022-12-04T17:03:44.778Z,19.77
2022-12-04T17:04:46.458Z,20.77
2022-12-04T17:05:48.293Z,21.92
2022-12-04T17:06:53.091Z,21.40
2022-12-04T17:07:55.631Z,20.92
2022-12-04T17:08:57.660Z,20.40
2022-12-04T17:09:59.563Z,22.40
2022-12-04T17:11:01.193Z,20.00
2022-12-04T17:12:02.817Z,20.88